Flight Track Log - Related Links

Times and Time Zones

All times are in EDT time to prevent confusion due to time zone crossing. See the CSN6818 flight status page for this flight to view local times or setup timezone preferences in your user account.

Time Position Orientation Groundspeed Altitude Reporting Facility
EDT Latitude Longitude Course Direction KTS MPH feet Rate Location/Type
Tue 12:00:00 AM 37.7178 80.5306 38° Northeast  Level Estimated
Tue 12:01:00 AM 37.8145 80.6266 38° Northeast  Level Estimated
Tue 12:02:00 AM 37.9112 80.7230 38° Northeast  Level Estimated
Tue 12:03:00 AM 38.0078 80.8196 38° Northeast  Level Estimated
Tue 12:04:00 AM 38.1043 80.9164 38° Northeast  Level Estimated
Tue 12:05:00 AM 38.2007 81.0135 38° Northeast  Level Estimated
Tue 12:06:00 AM 38.2970 81.1108 38° Northeast  Level Estimated
Tue 12:07:00 AM 38.3933 81.2085 38° Northeast  Level Estimated
Tue 12:08:00 AM 38.4895 81.3063 39° Northeast  Level Estimated
Tue 12:09:00 AM 38.5855 81.4045 39° Northeast  Level Estimated
Tue 12:10:00 AM 38.6816 81.5029 39° Northeast  Level Estimated
Tue 12:11:00 AM 38.7775 81.6015 39° Northeast  Level Estimated
Tue 12:12:00 AM 38.8733 81.7005 39° Northeast  Level Estimated
Tue 12:13:00 AM 38.9691 81.7997 39° Northeast  Level Estimated
Tue 12:14:00 AM 39.0648 81.8991 39° Northeast  Level Estimated
Tue 12:15:00 AM 39.1604 81.9988 39° Northeast  Level Estimated
Tue 12:16:00 AM 39.2559 82.0988 39° Northeast  Level Estimated
Tue 12:17:00 AM 39.3513 82.1991 39° Northeast  Level Estimated
Tue 12:18:00 AM 39.4466 82.2997 39° Northeast  Level Estimated
Tue 12:19:00 AM 39.5419 82.4005 39° Northeast  Level Estimated
Tue 12:20:00 AM 39.6371 82.5016 39° Northeast  Level Estimated
Tue 12:21:00 AM 39.7321 82.6030 39° Northeast  Level Estimated
Tue 12:22:00 AM 39.8271 82.7047 39° Northeast  Level Estimated
Tue 12:23:00 AM 39.9220 82.8066 39° Northeast  Level Estimated
Tue 12:24:00 AM 40.0168 82.9088 40° Northeast  Level Estimated
Tue 12:25:00 AM 40.1115 83.0113 40° Northeast  Level Estimated
Tue 12:26:00 AM 40.2062 83.1141 40° Northeast  Level Estimated
Tue 12:27:00 AM 40.3007 83.2172 40° Northeast  Level Estimated
Tue 12:28:00 AM 40.3951 83.3206 40° Northeast  Level Estimated
Tue 12:29:00 AM 40.4895 83.4243 40° Northeast  Level Estimated
Tue 12:30:00 AM 40.5838 83.5282 40° Northeast  Level Estimated
Tue 12:31:00 AM 40.6779 83.6325 40° Northeast  Level Estimated
Tue 12:32:00 AM 40.7720 83.7370 40° Northeast  Level Estimated
Tue 12:33:00 AM 40.8660 83.8418 40° Northeast  Level Estimated
Tue 12:34:00 AM 40.9598 83.9470 40° Northeast  Level Estimated
Tue 12:35:00 AM 41.0536 84.0524 40° Northeast  Level Estimated
Tue 12:36:00 AM 41.1473 84.1581 40° Northeast  Level Estimated
Tue 12:37:00 AM 41.2409 84.2642 40° Northeast  Level Estimated
Tue 12:38:00 AM 41.3344 84.3705 40° Northeast  Level Estimated
Tue 12:39:00 AM 41.4278 84.4772 41° Northeast  Level Estimated
Tue 12:40:00 AM 41.5211 84.5841 41° Northeast  Level Estimated
Tue 12:41:00 AM 41.6143 84.6914 41° Northeast  Level Estimated
Tue 12:42:00 AM 41.7074 84.7990 41° Northeast  Level Estimated
Tue 12:43:00 AM 41.8004 84.9069 41° Northeast  Level Estimated
Tue 12:44:00 AM 41.8933 85.0151 41° Northeast  Level Estimated
Tue 12:45:00 AM 41.9861 85.1236 41° Northeast  Level Estimated
Tue 12:46:00 AM 42.0788 85.2324 41° Northeast  Level Estimated
Tue 12:47:00 AM 42.1714 85.3416 41° Northeast  Level Estimated
Tue 12:48:00 AM 42.2639 85.4510 41° Northeast  Level Estimated
Tue 12:49:00 AM 42.3562 85.5608 41° Northeast  Level Estimated
Tue 12:50:00 AM 42.4485 85.6709 41° Northeast  Level Estimated
Tue 12:51:00 AM 42.5407 85.7814 41° Northeast  Level Estimated
Tue 12:52:00 AM 42.6327 85.8921 41° Northeast  Level Estimated
Tue 12:53:00 AM 42.7247 86.0032 42° Northeast  Level Estimated
Tue 12:54:00 AM 42.8166 86.1147 42° Northeast  Level Estimated
Tue 12:55:00 AM 42.9083 86.2264 42° Northeast  Level Estimated
Tue 12:56:00 AM 42.9999 86.3385 42° Northeast  Level Estimated
Tue 12:57:00 AM 43.0914 86.4509 42° Northeast  Level Estimated
Tue 12:58:00 AM 43.1828 86.5637 42° Northeast  Level Estimated
Tue 12:59:00 AM 43.2742 86.6768 42° Northeast  Level Estimated
Tue 01:00:00 AM 43.3653 86.7902 42° Northeast  Level Estimated
Tue 01:01:00 AM 43.4564 86.9040 42° Northeast  Level Estimated
Tue 01:02:00 AM 43.5474 87.0181 42° Northeast  Level Estimated
Tue 01:03:00 AM 43.6382 87.1326 42° Northeast  Level Estimated
Tue 01:04:00 AM 43.7290 87.2474 42° Northeast  Level Estimated
Tue 01:05:00 AM 43.8196 87.3625 43° Northeast  Level Estimated
Tue 01:06:00 AM 43.9071 87.4742 43° Northeast  Level Estimated
Tue 01:07:00 AM 43.9071 87.4742 North  Level Estimated
Tue 01:08:00 AM 43.9071 87.4742 North  Level Estimated
Tue 01:09:00 AM 43.9071 87.4742 North  Level Estimated
Tue 01:10:00 AM 43.9071 87.4742 North  Level Estimated
Tue 01:11:00 AM 43.9071 87.4742 North  Level Estimated
Tue 01:12:00 AM 43.9071 87.4742 North  Level Estimated
Tue 01:13:00 AM 43.9071 87.4742 North  Level Estimated
Tue 01:14:00 AM 43.9071 87.4742 North  Level Estimated
Tue 01:15:00 AM 43.9071 87.4742 North  Level Estimated
Tue 01:16:00 AM 43.9071 87.4742 North  Level Estimated
Tue 01:17:00 AM 43.9071 87.4742 North  Level Estimated
Tue 01:18:00 AM 43.9071 87.4742 North  Level Estimated
Tue 01:19:00 AM 43.9071 87.4742 North  Level Estimated
Tue 01:20:00 AM 43.9071 87.4742 North  Level Estimated
Tue 01:21:00 AM 43.9071 87.4742 North  Level Estimated
Tue 01:22:00 AM 43.9071 87.4742 North  Level Estimated

Login

Don't have an account? Register now (free) for customized features, flight alerts, and more!